Time;durP1;ratioP1;P1;durP2;ratioP2;P2;SDS_P1;SDS_P2;PMS_P1;PMS_P2;Temp;Humidity;BMP_temperature;BMP_pressure;BME280_temperature;BME280_humidity;BME280_pressure;Samples;Min_cycle;Max_cycle;Signal;HPM_P1;HPM_P2
2021/08/02 00:02:48;;;;;;;6.40;3.33;;;;;;;17.36;73.27;100403.03;5105590;27;20031;-78
2021/08/02 00:05:35;;;;;;;4.28;3.13;;;;;;;17.34;73.54;100409.00;5136199;27;20114;-78
2021/08/02 00:08:21;;;;;;;4.88;3.10;;;;;;;17.27;73.12;100405.88;5137129;27;20115;-78
2021/08/02 00:11:07;;;;;;;4.80;3.33;;;;;;;17.24;73.27;100400.16;5103395;27;20169;-78
2021/08/02 00:13:53;;;;;;;4.90;3.15;;;;;;;17.19;73.31;100402.00;5137610;27;20117;-78
2021/08/02 00:16:39;;;;;;;4.95;3.53;;;;;;;17.14;73.38;100405.00;5121683;27;20062;-78
2021/08/02 00:19:25;;;;;;;5.78;3.60;;;;;;;17.07;73.34;100401.91;5119934;27;20371;-78
2021/08/02 00:22:10;;;;;;;6.55;3.30;;;;;;;17.04;73.15;100396.16;5120714;27;20061;-78
2021/08/02 00:24:56;;;;;;;4.63;3.25;;;;;;;17.01;73.25;100392.06;5137140;27;20114;-78
2021/08/02 00:27:42;;;;;;;4.88;3.42;;;;;;;16.93;73.56;100398.53;5109805;27;20035;-78
2021/08/02 00:30:28;;;;;;;5.95;3.50;;;;;;;16.88;73.66;100395.94;5105409;27;20054;-78
2021/08/02 00:33:13;;;;;;;4.70;3.30;;;;;;;16.81;73.71;100388.06;5135910;27;20039;-77
2021/08/02 00:36:27;;;;;;;4.95;3.35;;;;;;;16.79;73.33;100386.75;5098839;27;20042;-78
2021/08/02 00:39:33;;;;;;;4.15;2.78;;;;;;;16.69;73.57;100385.16;5103222;27;20065;-78
2021/08/02 00:42:53;;;;;;;4.95;3.15;;;;;;;16.65;73.76;100390.59;5106572;27;20038;-78
2021/08/02 00:45:39;;;;;;;5.60;3.17;;;;;;;16.60;73.66;100393.56;5116739;27;20559;-78
2021/08/02 00:48:30;;;;;;;6.07;3.30;;;;;;;16.51;73.86;100390.00;5092159;27;20038;-78
2021/08/02 00:51:15;;;;;;;3.95;3.15;;;;;;;16.44;73.68;100395.31;5108570;27;20043;-78
2021/08/02 00:54:01;;;;;;;5.03;3.10;;;;;;;16.42;73.45;100395.66;5133770;27;20114;-77
2021/08/02 00:56:48;;;;;;;4.50;2.97;;;;;;;16.36;73.95;100394.19;5131717;27;20034;-79
2021/08/02 00:59:33;;;;;;;5.60;3.20;;;;;;;16.33;74.07;100394.88;5121159;27;20063;-78
2021/08/02 01:02:20;;;;;;;4.00;3.08;;;;;;;16.24;73.93;100400.50;5134074;27;20046;-78
2021/08/02 01:05:07;;;;;;;5.43;3.33;;;;;;;16.23;74.02;100398.03;5118359;27;20039;-78
2021/08/02 01:07:57;;;;;;;4.93;3.25;;;;;;;16.19;74.21;100399.88;5117011;27;20031;-78
2021/08/02 01:10:45;;;;;;;4.20;3.05;;;;;;;16.14;74.16;100389.66;5118555;27;20439;-78
2021/08/02 01:13:32;;;;;;;5.93;3.70;;;;;;;16.11;74.30;100392.31;5132579;27;20039;-77
2021/08/02 01:16:18;;;;;;;4.90;3.42;;;;;;;16.09;74.35;100392.63;5131238;27;20557;-78
2021/08/02 01:19:08;;;;;;;6.03;3.38;;;;;;;16.04;74.22;100398.41;5106361;27;20494;-78
2021/08/02 01:21:57;;;;;;;5.80;3.50;;;;;;;16.01;74.91;100387.88;5094439;27;20035;-78
2021/08/02 01:24:43;;;;;;;4.50;2.88;;;;;;;15.98;74.47;100394.16;5117270;27;20038;-78
2021/08/02 01:27:45;;;;;;;4.43;3.15;;;;;;;15.94;74.79;100394.00;5106381;27;20034;-78
2021/08/02 01:30:31;;;;;;;5.00;3.28;;;;;;;15.94;74.62;100401.59;5134336;27;20038;-77
2021/08/02 01:33:18;;;;;;;4.63;3.03;;;;;;;15.92;74.66;100398.28;5118919;27;20069;-78
2021/08/02 01:36:05;;;;;;;4.05;2.88;;;;;;;15.85;74.97;100399.63;5106039;27;20043;-78
2021/08/02 01:38:51;;;;;;;4.30;2.80;;;;;;;15.85;74.78;100399.63;5118381;27;20054;-78
2021/08/02 01:41:36;;;;;;;4.28;3.17;;;;;;;15.82;74.85;100405.91;5121080;27;20041;-78
2021/08/02 01:44:23;;;;;;;6.63;3.08;;;;;;;15.82;74.71;100397.50;5102049;27;20041;-78
2021/08/02 01:47:13;;;;;;;4.78;2.90;;;;;;;15.78;75.34;100390.91;5135789;27;20039;-78
2021/08/02 01:50:28;;;;;;;4.60;2.80;;;;;;;15.75;75.80;100391.56;5087783;27;20168;-78
2021/08/02 01:53:26;;;;;;;4.40;3.30;;;;;;;15.75;75.93;100394.38;5118250;27;20498;-78
2021/08/02 01:56:19;;;;;;;4.47;2.72;;;;;;;15.75;76.00;100390.75;5135054;27;20437;-78
2021/08/02 01:59:10;;;;;;;;;;;;;;;15.76;75.77;100386.78;5102557;27;20035;-78
2021/08/02 02:02:06;;;;;;;4.55;3.10;;;;;;;15.73;76.03;100388.25;5104085;27;19918;-78
2021/08/02 02:05:09;;;;;;;5.32;2.90;;;;;;;15.75;75.86;100385.97;5117170;27;20071;-77
2021/08/02 02:08:22;;;;;;;4.07;3.00;;;;;;;15.76;76.35;100382.00;5117756;27;20031;-78
2021/08/02 02:11:07;;;;;;;4.05;2.92;;;;;;;15.78;76.09;100385.28;5120066;27;20531;-78
2021/08/02 02:13:55;;;;;;;5.05;2.60;;;;;;;15.79;76.75;100380.50;5121212;27;20125;-78
2021/08/02 02:16:43;;;;;;;7.28;3.10;;;;;;;15.79;76.42;100384.13;5107199;27;20043;-78
2021/08/02 02:19:29;;;;;;;4.70;2.88;;;;;;;15.82;76.00;100388.25;5118243;27;20027;-78
2021/08/02 02:22:15;;;;;;;4.57;2.60;;;;;;;15.81;76.28;100387.44;5105123;27;20034;-77
2021/08/02 02:25:01;;;;;;;3.85;2.38;;;;;;;15.80;75.96;100383.00;5120662;27;20125;-78
2021/08/02 02:27:47;;;;;;;4.03;3.00;;;;;;;15.83;76.69;100389.91;5103817;27;20042;-78
2021/08/02 02:30:33;;;;;;;4.75;2.78;;;;;;;15.84;76.41;100386.75;5123547;27;20091;-78
2021/08/02 02:33:19;;;;;;;5.90;3.08;;;;;;;15.83;76.79;100382.31;5107223;27;20035;-78
2021/08/02 02:36:05;;;;;;;3.35;2.75;;;;;;;15.86;76.73;100381.66;5118839;27;20031;-78
2021/08/02 02:38:50;;;;;;;3.38;2.53;;;;;;;15.83;76.89;100376.72;5106056;27;20049;-78
2021/08/02 02:41:36;;;;;;;4.00;2.70;;;;;;;15.84;76.62;100386.75;5103923;27;20126;-78
2021/08/02 02:44:22;;;;;;;4.03;2.92;;;;;;;15.90;77.04;100383.78;5120247;27;20038;-78
2021/08/02 02:47:08;;;;;;;5.82;2.80;;;;;;;15.90;76.82;100378.19;5086252;28;20052;-78
2021/08/02 02:49:54;;;;;;;3.55;2.30;;;;;;;15.89;76.94;100374.56;5117792;27;20050;-79
2021/08/02 02:52:40;;;;;;;5.13;2.63;;;;;;;15.91;76.63;100379.81;5121369;27;20110;-78
2021/08/02 02:55:26;;;;;;;3.63;2.50;;;;;;;15.92;76.91;100392.69;5101213;27;20483;-78
2021/08/02 02:58:12;;;;;;;4.22;2.70;;;;;;;15.93;77.03;100385.91;5098225;28;20043;-78
2021/08/02 03:00:57;;;;;;;4.30;2.63;;;;;;;15.93;77.16;100386.75;5105570;27;20046;-79
2021/08/02 03:03:45;;;;;;;4.72;2.70;;;;;;;15.93;76.54;100383.94;5119956;27;20039;-78
2021/08/02 03:06:32;;;;;;;6.70;2.47;;;;;;;15.95;76.66;100387.25;5119599;27;20031;-78
2021/08/02 03:09:18;;;;;;;3.92;2.70;;;;;;;15.96;77.36;100385.25;5129559;27;20050;-78
2021/08/02 03:12:04;;;;;;;4.90;2.88;;;;;;;15.96;77.38;100390.84;5113613;27;20038;-78
2021/08/02 03:14:50;;;;;;;3.92;2.50;;;;;;;15.97;76.80;100386.91;5106778;27;20458;-78
2021/08/02 03:17:36;;;;;;;4.47;2.55;;;;;;;15.97;76.97;100392.53;5093275;27;20042;-78
2021/08/02 03:20:22;;;;;;;8.77;2.65;;;;;;;15.97;76.87;100392.53;5133877;27;20027;-78
2021/08/02 03:23:18;;;;;;;4.80;2.55;;;;;;;15.96;77.33;100388.88;5117519;27;20430;-78
2021/08/02 03:26:16;;;;;;;4.72;2.50;;;;;;;15.98;77.52;100388.56;5105456;27;20042;-78
2021/08/02 03:29:23;;;;;;;5.20;2.30;;;;;;;15.95;76.58;100389.22;5100939;28;20034;-78
2021/08/02 03:32:10;;;;;;;4.88;2.67;;;;;;;15.94;77.19;100393.19;5131855;27;20039;-77
2021/08/02 03:35:02;;;;;;;5.45;2.30;;;;;;;15.98;77.07;100391.34;5117979;27;20032;-76
2021/08/02 03:37:48;;;;;;;4.25;2.25;;;;;;;15.95;77.27;100389.22;5107308;27;20031;-77
2021/08/02 03:40:34;;;;;;;4.20;2.40;;;;;;;15.94;77.14;100396.00;5121886;27;20038;-76
2021/08/02 03:43:20;;;;;;;5.07;2.40;;;;;;;15.96;77.40;100396.47;5096580;28;20042;-77
2021/08/02 03:46:06;;;;;;;4.47;2.65;;;;;;;15.95;77.24;100394.81;5101434;27;20038;-76
2021/08/02 03:48:51;;;;;;;3.45;2.30;;;;;;;15.94;77.74;100390.38;5092568;28;20039;-76
2021/08/02 03:51:53;;;;;;;3.10;2.47;;;;;;;15.93;77.61;100397.13;5117858;28;20039;-76
2021/08/02 03:54:39;;;;;;;3.55;2.30;;;;;;;15.92;77.58;100401.09;5130923;27;20050;-76
2021/08/02 03:57:25;;;;;;;2.97;2.33;;;;;;;15.90;77.27;100397.78;5088273;27;20099;-76
2021/08/02 04:00:11;;;;;;;3.00;2.30;;;;;;;15.88;77.58;100394.50;5091834;27;20114;-76
2021/08/02 04:02:57;;;;;;;3.60;2.53;;;;;;;15.90;77.94;100397.78;5086704;28;20114;-76
2021/08/02 04:05:43;;;;;;;3.85;2.05;;;;;;;15.83;77.01;100395.50;5091074;28;20027;-76
2021/08/02 04:08:29;;;;;;;4.80;2.45;;;;;;;15.82;77.46;100397.50;5123198;27;20095;-76
2021/08/02 04:11:14;;;;;;;7.63;2.63;;;;;;;15.83;77.42;100393.53;5094052;27;20482;-77
2021/08/02 04:14:00;;;;;;;4.63;2.40;;;;;;;15.81;77.60;100395.84;5093584;28;20027;-76
2021/08/02 04:16:46;;;;;;;4.38;2.50;;;;;;;15.78;77.70;100402.09;5099062;28;20028;-76
2021/08/02 04:19:32;;;;;;;5.20;2.35;;;;;;;15.78;77.44;100404.09;5127552;27;20027;-77
2021/08/02 04:22:18;;;;;;;4.10;2.47;;;;;;;15.77;77.37;100403.25;5116930;28;20047;-77
2021/08/02 04:25:04;;;;;;;4.47;2.58;;;;;;;15.72;77.22;100414.63;5115622;28;20031;-77
2021/08/02 04:27:51;;;;;;;2.42;2.05;;;;;;;15.70;77.33;100411.34;5129043;27;20498;-76
2021/08/02 04:30:37;;;;;;;3.90;2.50;;;;;;;15.67;77.39;100400.75;5114629;27;20042;-77
2021/08/02 04:33:23;;;;;;;4.55;2.88;;;;;;;15.68;77.71;100402.44;5089654;28;20039;-77
2021/08/02 04:36:09;;;;;;;3.90;2.40;;;;;;;15.67;77.48;100411.97;5101954;28;20035;-77
2021/08/02 04:38:55;;;;;;;6.28;2.65;;;;;;;15.63;77.68;100399.78;5133165;27;20035;-77
2021/08/02 04:41:40;;;;;;;3.75;2.30;;;;;;;15.65;77.52;100408.66;5128141;27;20588;-77
2021/08/02 04:44:26;;;;;;;2.92;2.45;;;;;;;15.62;77.95;100418.53;5132819;27;20058;-77
2021/08/02 04:47:12;;;;;;;5.88;2.55;;;;;;;15.63;77.51;100416.59;5111743;27;20505;-77
2021/08/02 04:49:58;;;;;;;4.78;2.40;;;;;;;15.65;77.43;100419.84;5131312;27;20096;-79
2021/08/02 04:52:44;;;;;;;5.10;2.35;;;;;;;15.61;77.97;100421.69;5137258;27;20039;-78
2021/08/02 04:55:30;;;;;;;4.28;2.10;;;;;;;15.60;78.18;100420.03;5137230;27;20076;-79
2021/08/02 04:58:16;;;;;;;4.45;2.00;;;;;;;15.59;78.45;100426.78;5108051;27;20043;-79
2021/08/02 05:01:01;;;;;;;3.80;2.17;;;;;;;15.58;78.29;100420.38;5116658;27;20039;-78
2021/08/02 05:03:47;;;;;;;5.63;2.45;;;;;;;15.57;78.07;100432.72;5137090;27;20038;-82
2021/08/02 05:06:33;;;;;;;3.72;2.42;;;;;;;15.58;78.27;100430.75;5122506;27;20031;-79
2021/08/02 05:09:19;;;;;;;4.50;2.67;;;;;;;15.58;78.22;100425.16;5120440;27;20088;-78
2021/08/02 05:12:06;;;;;;;4.28;2.53;;;;;;;15.60;78.66;100434.03;5133816;27;20037;-78
2021/08/02 05:33:40;;;;;;;5.55;2.78;;;;;;;15.71;80.29;100437.34;5134843;27;20039;-78
2021/08/02 05:36:26;;;;;;;4.07;2.75;;;;;;;15.75;80.09;100435.53;5131213;27;20043;-78
2021/08/02 05:39:11;;;;;;;4.95;3.20;;;;;;;15.78;80.54;100438.50;5106741;27;20042;-78
2021/08/02 05:41:57;;;;;;;4.18;2.83;;;;;;;15.84;80.69;100439.16;5137416;27;20031;-78
2021/08/02 05:44:43;;;;;;;5.55;3.17;;;;;;;15.92;82.02;100432.72;5120577;27;20031;-78
2021/08/02 05:47:29;;;;;;;5.13;3.13;;;;;;;16.00;82.54;100426.28;5134513;27;20045;-77
2021/08/02 05:50:14;;;;;;;5.55;3.33;;;;;;;16.11;82.36;100423.94;5119151;27;20415;-77
2021/08/02 05:53:00;;;;;;;7.90;3.65;;;;;;;16.26;81.30;100439.41;5107011;27;20063;-78
2021/08/02 05:55:46;;;;;;;5.15;3.33;;;;;;;16.40;80.84;100434.41;5121481;27;20038;-77
2021/08/02 05:58:32;;;;;;;5.13;3.35;;;;;;;16.56;81.16;100431.88;5121130;27;20039;-78
2021/08/02 06:01:18;;;;;;;5.72;3.63;;;;;;;16.72;78.77;100432.97;5118167;27;20058;-79
2021/08/02 06:04:04;;;;;;;8.05;3.38;;;;;;;16.88;79.50;100438.00;5136305;27;20436;-79
2021/08/02 06:06:51;;;;;;;4.60;3.30;;;;;;;17.02;81.37;100441.41;5115355;28;20115;-79
2021/08/02 06:09:37;;;;;;;6.93;2.95;;;;;;;17.13;79.38;100445.47;5105761;28;20072;-79
2021/08/02 06:12:23;;;;;;;4.90;2.83;;;;;;;17.25;80.29;100446.72;5101090;27;20087;-79
2021/08/02 06:15:10;;;;;;;4.50;3.22;;;;;;;17.35;80.61;100451.91;5136116;27;20046;-79
2021/08/02 06:17:56;;;;;;;4.15;3.22;;;;;;;17.42;79.46;100453.00;5116261;27;20505;-79
2021/08/02 06:20:42;;;;;;;4.03;2.83;;;;;;;17.50;79.83;100445.69;5105403;27;20042;-79
2021/08/02 06:23:28;;;;;;;5.35;2.92;;;;;;;17.58;79.06;100453.22;5119735;27;20165;-79
2021/08/02 06:26:13;;;;;;;5.95;3.42;;;;;;;17.63;80.83;100455.00;5120479;27;20601;-79
2021/08/02 06:28:59;;;;;;;6.88;3.83;;;;;;;17.70;78.75;100458.09;5108006;27;20031;-78
2021/08/02 06:31:45;;;;;;;5.50;3.60;;;;;;;17.76;78.57;100453.06;5102799;27;20494;-78
2021/08/02 06:34:31;;;;;;;5.45;3.80;;;;;;;17.80;79.03;100449.28;5115754;27;20098;-78
2021/08/02 06:37:17;;;;;;;4.97;3.40;;;;;;;17.88;78.36;100453.16;5137139;27;20114;-78
2021/08/02 06:40:03;;;;;;;5.95;3.50;;;;;;;17.92;77.69;100459.75;5124543;27;20070;-79
2021/08/02 06:42:49;;;;;;;4.55;3.13;;;;;;;17.98;76.99;100458.34;5102590;27;20027;-79
2021/08/02 06:45:34;;;;;;;5.47;3.15;;;;;;;18.00;78.02;100458.84;5108561;27;20034;-79
2021/08/02 06:48:21;;;;;;;5.10;2.95;;;;;;;18.08;77.29;100466.34;5118090;27;20031;-78
2021/08/02 06:51:08;;;;;;;5.30;3.35;;;;;;;18.13;77.00;100465.31;5134926;27;20114;-78
2021/08/02 06:53:55;;;;;;;7.90;3.20;;;;;;;18.18;76.93;100467.91;5130773;27;20046;-78
2021/08/02 06:56:42;;;;;;;4.95;3.20;;;;;;;18.24;76.60;100476.94;5115624;27;20160;-78
2021/08/02 06:59:28;;;;;;;5.40;2.95;;;;;;;18.31;76.47;100477.19;5120268;27;20039;-78
2021/08/02 07:02:14;;;;;;;5.22;2.85;;;;;;;18.36;75.60;100479.78;5117187;27;20074;-78
2021/08/02 07:05:00;;;;;;;4.22;3.00;;;;;;;18.45;75.29;100474.88;5119127;27;20039;-78
2021/08/02 07:07:45;;;;;;;5.80;3.00;;;;;;;18.54;75.15;100471.97;5116158;27;20031;-78
2021/08/02 07:10:31;;;;;;;5.97;3.15;;;;;;;18.64;74.60;100482.78;5131478;27;20390;-78
2021/08/02 07:13:17;;;;;;;4.28;2.65;;;;;;;18.72;73.57;100473.41;5132948;27;20514;-79
2021/08/02 07:16:03;;;;;;;6.43;2.63;;;;;;;18.81;73.97;100473.34;5103864;27;20037;-74
2021/08/02 07:18:51;;;;;;;5.47;2.45;;;;;;;18.90;73.31;100476.84;5133783;27;20037;-74
2021/08/02 07:21:37;;;;;;;5.55;2.70;;;;;;;19.00;73.17;100483.16;5132209;27;20027;-74
2021/08/02 07:24:23;;;;;;;4.82;2.40;;;;;;;19.10;72.65;100479.91;5115220;27;20027;-74
2021/08/02 07:27:08;;;;;;;4.65;2.60;;;;;;;19.21;72.53;100475.44;5100139;27;20042;-75
2021/08/02 07:29:54;;;;;;;4.07;2.55;;;;;;;19.31;72.33;100474.97;5088292;27;20510;-74
2021/08/02 07:32:40;;;;;;;4.78;2.80;;;;;;;19.40;72.23;100475.63;5087852;27;20063;-74
2021/08/02 07:35:27;;;;;;;3.92;2.70;;;;;;;19.51;71.98;100487.25;5102040;27;20074;-74
2021/08/02 07:38:13;;;;;;;8.63;3.28;;;;;;;19.58;72.21;100478.19;5103547;27;20089;-74
2021/08/02 07:40:59;;;;;;;6.00;3.65;;;;;;;19.67;71.56;100480.88;5106818;27;20039;-74
2021/08/02 07:43:45;;;;;;;4.47;3.00;;;;;;;19.73;71.54;100482.28;5105726;27;20031;-74
2021/08/02 07:46:31;;;;;;;6.13;3.80;;;;;;;19.80;71.57;100477.66;5089146;27;20039;-74
2021/08/02 07:49:17;;;;;;;8.50;3.60;;;;;;;19.89;71.14;100483.16;5102745;27;20034;-74
2021/08/02 07:52:03;;;;;;;6.97;4.00;;;;;;;19.97;71.60;100481.38;5086374;27;20042;-74
2021/08/02 07:54:49;;;;;;;6.35;3.78;;;;;;;20.06;70.69;100470.78;5104261;28;20112;-74
2021/08/02 07:57:35;;;;;;;5.47;3.80;;;;;;;20.14;70.53;100478.22;5089546;28;20483;-74
2021/08/02 08:00:21;;;;;;;7.82;4.32;;;;;;;20.22;70.42;100479.25;5099788;27;20031;-74
2021/08/02 08:03:07;;;;;;;10.68;4.43;;;;;;;20.30;70.63;100483.91;5102836;28;20066;-74
2021/08/02 08:05:53;;;;;;;8.15;4.70;;;;;;;20.40;70.06;100476.94;5087569;28;20039;-74
2021/08/02 08:08:39;;;;;;;6.75;4.20;;;;;;;20.49;69.96;100480.41;5100764;27;20065;-73
2021/08/02 08:11:24;;;;;;;7.70;3.97;;;;;;;20.56;69.93;100477.81;5099408;28;20480;-74
2021/08/02 08:14:10;;;;;;;8.23;4.90;;;;;;;20.63;70.17;100477.19;5133247;27;20035;-74
2021/08/02 08:16:56;;;;;;;9.20;4.57;;;;;;;20.71;69.61;100471.34;5093452;27;20035;-73
2021/08/02 08:19:42;;;;;;;6.18;4.03;;;;;;;20.81;69.44;100478.47;5103262;28;20535;-73
2021/08/02 08:22:28;;;;;;;6.32;4.10;;;;;;;20.90;69.15;100476.28;5094706;27;20027;-74
2021/08/02 08:25:14;;;;;;;7.60;4.57;;;;;;;20.97;68.99;100469.97;5097101;27;20533;-74
2021/08/02 08:28:00;;;;;;;7.93;4.40;;;;;;;21.04;68.75;100478.63;5120999;27;20034;-74
2021/08/02 08:30:46;;;;;;;7.32;4.50;;;;;;;21.14;68.47;100475.22;5082340;27;20031;-74
2021/08/02 08:33:32;;;;;;;7.75;4.70;;;;;;;21.22;68.18;100475.41;5105934;27;20041;-74
2021/08/02 08:36:18;;;;;;;8.70;4.07;;;;;;;21.30;68.05;100472.38;5102063;27;20044;-74
2021/08/02 08:39:04;;;;;;;8.70;5.05;;;;;;;21.36;67.82;100470.09;5132101;27;20498;-74
2021/08/02 08:41:51;;;;;;;10.27;4.90;;;;;;;21.45;67.35;100473.56;5141748;27;20039;-74
2021/08/02 08:44:37;;;;;;;7.63;4.70;;;;;;;21.51;67.37;100474.94;5108414;27;20035;-74
2021/08/02 08:47:23;;;;;;;8.32;4.63;;;;;;;21.58;66.96;100480.72;5118786;27;20495;-73
2021/08/02 08:50:09;;;;;;;6.90;4.40;;;;;;;21.64;67.49;100476.41;5124255;27;20064;-78
2021/08/02 08:52:56;;;;;;;7.57;5.00;;;;;;;21.75;66.99;100467.34;5088658;27;20087;-79
2021/08/02 08:55:45;;;;;;;7.75;4.70;;;;;;;21.84;66.52;100465.97;5097467;28;20106;-78
2021/08/02 08:58:31;;;;;;;6.50;4.07;;;;;;;21.96;66.19;100472.66;5098473;27;20095;-78
2021/08/02 09:01:25;;;;;;;7.43;4.55;;;;;;;22.06;66.36;100463.56;5099444;27;20035;-73
2021/08/02 09:04:12;;;;;;;8.52;5.07;;;;;;;22.16;66.73;100470.63;5066498;27;20059;-74
2021/08/02 09:06:59;;;;;;;8.38;5.05;;;;;;;22.25;66.32;100468.41;5099196;28;20120;-73
2021/08/02 09:09:45;;;;;;;5.95;4.57;;;;;;;22.36;66.13;100469.44;5102913;27;20027;-73
2021/08/02 09:12:32;;;;;;;7.03;4.10;;;;;;;22.47;65.58;100469.63;5096309;27;20035;-73
2021/08/02 09:15:18;;;;;;;7.15;4.75;;;;;;;22.56;65.51;100464.53;5079303;28;20039;-73
2021/08/02 09:18:09;;;;;;;9.63;4.63;;;;;;;22.66;64.90;100468.75;5106721;27;20056;-74
2021/08/02 09:21:02;;;;;;;7.15;4.20;;;;;;;22.76;63.93;100468.13;5089531;27;20031;-78
2021/08/02 09:23:48;;;;;;;5.45;4.22;;;;;;;22.85;63.86;100465.06;5106679;27;20043;-78
2021/08/02 09:26:36;;;;;;;6.95;3.95;;;;;;;22.94;63.70;100460.75;5080439;27;20031;-78
2021/08/02 09:29:32;;;;;;;4.95;3.75;;;;;;;23.08;63.58;100471.53;5091277;27;20031;-78
2021/08/02 09:32:18;;;;;;;8.32;3.92;;;;;;;23.21;63.14;100463.66;5095570;27;20163;-78
2021/08/02 09:35:04;;;;;;;7.97;4.35;;;;;;;23.39;63.43;100470.38;5097166;27;20058;-77
2021/08/02 09:37:57;;;;;;;7.15;3.97;;;;;;;23.52;62.67;100462.47;5095001;27;20118;-78
2021/08/02 09:40:48;;;;;;;5.20;3.55;;;;;;;23.66;62.06;100470.34;5095209;27;20027;-77
2021/08/02 09:43:33;;;;;;;6.15;4.13;;;;;;;23.81;61.52;100465.72;5090707;27;20043;-78
2021/08/02 09:46:19;;;;;;;4.65;3.63;;;;;;;23.93;60.51;100468.31;5093876;27;20484;-78
2021/08/02 09:49:05;;;;;;;5.43;3.47;;;;;;;24.04;59.22;100472.09;5083172;28;20115;-78
2021/08/02 09:51:51;;;;;;;5.22;3.33;;;;;;;24.20;59.80;100471.06;5088113;28;20108;-78
2021/08/02 09:54:37;;;;;;;4.88;3.63;;;;;;;24.31;59.01;100467.13;5095797;27;20043;-76
2021/08/02 09:57:23;;;;;;;6.72;3.88;;;;;;;24.38;59.40;100469.22;5093621;27;20043;-75
2021/08/02 10:00:10;;;;;;;5.85;3.22;;;;;;;24.47;59.15;100471.78;5120701;27;20047;-74
2021/08/02 10:02:56;;;;;;;5.57;3.65;;;;;;;24.50;58.20;100468.16;5088630;27;20040;-73
2021/08/02 10:05:42;;;;;;;6.15;3.35;;;;;;;24.60;58.32;100470.31;5097795;27;20114;-74
2021/08/02 10:08:28;;;;;;;5.65;3.83;;;;;;;24.70;57.82;100468.75;5081056;27;20487;-77
2021/08/02 10:11:14;;;;;;;4.68;3.33;;;;;;;24.84;58.64;100473.75;5095164;27;20070;-78
2021/08/02 10:14:00;;;;;;;6.38;4.00;;;;;;;24.96;57.63;100464.91;5091814;27;20345;-77
2021/08/02 10:16:46;;;;;;;9.23;3.88;;;;;;;25.11;57.47;100458.16;5092112;27;20037;-78
2021/08/02 10:19:38;;;;;;;5.85;3.70;;;;;;;25.25;57.86;100456.66;5091589;27;20475;-78
2021/08/02 10:22:24;;;;;;;6.87;4.10;;;;;;;25.40;57.00;100459.19;5115175;27;20065;-75
2021/08/02 10:25:10;;;;;;;7.45;3.97;;;;;;;25.51;56.78;100462.09;5088939;27;20255;-76
2021/08/02 10:28:04;;;;;;;6.55;3.40;;;;;;;25.64;56.43;100456.88;5105521;27;20038;-73
2021/08/02 10:31:01;;;;;;;5.75;4.05;;;;;;;25.75;56.00;100457.75;5087114;28;20527;-74
2021/08/02 10:33:47;;;;;;;5.57;3.97;;;;;;;25.84;55.28;100455.38;5102765;27;20027;-77
2021/08/02 10:36:33;;;;;;;5.05;3.42;;;;;;;25.95;55.32;100461.13;5089657;27;20126;-76
2021/08/02 10:39:22;;;;;;;3.50;3.08;;;;;;;26.03;54.76;100453.44;5085477;27;20399;-76
2021/08/02 10:42:09;;;;;;;3.67;2.88;;;;;;;26.07;54.31;100455.06;5105178;27;20030;-72
2021/08/02 10:44:55;;;;;;;6.32;3.45;;;;;;;26.16;54.03;100459.56;5097769;28;20032;-72
2021/08/02 10:47:42;;;;;;;5.05;3.55;;;;;;;26.23;54.00;100449.00;5111973;27;20476;-73
2021/08/02 10:50:30;;;;;;;4.15;3.20;;;;;;;26.29;53.53;100455.13;5098212;27;20466;-74
2021/08/02 10:53:19;;;;;;;5.38;3.00;;;;;;;26.36;53.10;100452.31;5098213;27;20047;-78
2021/08/02 10:56:05;;;;;;;3.78;2.60;;;;;;;26.40;53.59;100453.13;5111566;27;20035;-78
2021/08/02 10:58:51;;;;;;;4.20;2.90;;;;;;;26.44;52.41;100448.25;5087509;27;20559;-77
2021/08/02 11:01:37;;;;;;;4.05;2.60;;;;;;;26.48;52.04;100454.75;5104896;27;20027;-77
2021/08/02 11:04:23;;;;;;;5.20;3.22;;;;;;;26.49;52.78;100459.25;5122369;27;20466;-77
2021/08/02 11:07:09;;;;;;;4.32;2.80;;;;;;;26.47;53.02;100453.13;5122682;27;20046;-78
2021/08/02 11:09:54;;;;;;;4.47;2.72;;;;;;;26.43;52.71;100460.84;5110939;27;20031;-77
2021/08/02 11:12:47;;;;;;;4.60;2.80;;;;;;;26.43;52.66;100452.31;5110116;27;20043;-77
2021/08/02 11:15:42;;;;;;;4.95;2.55;;;;;;;26.41;53.30;100454.75;5091097;28;20066;-78
2021/08/02 11:18:28;;;;;;;3.67;2.70;;;;;;;26.38;53.17;100449.84;5089477;27;20039;-76
2021/08/02 11:21:34;;;;;;;5.05;2.83;;;;;;;26.35;53.33;100452.69;5107731;27;20027;-77
2021/08/02 11:24:20;;;;;;;4.97;2.70;;;;;;;26.35;52.93;100453.50;5131240;27;20044;-77
2021/08/02 11:27:08;;;;;;;4.32;2.88;;;;;;;26.35;53.15;100452.69;5088497;27;20476;-77
2021/08/02 11:29:54;;;;;;;3.53;2.83;;;;;;;26.32;52.64;100459.19;5093485;27;20535;-77
2021/08/02 11:32:43;;;;;;;3.53;2.90;;;;;;;26.31;53.01;100455.53;5089780;27;20133;-77
2021/08/02 11:35:36;;;;;;;4.07;2.97;;;;;;;26.28;53.14;100456.34;5110412;27;20027;-78
2021/08/02 11:38:36;;;;;;;4.32;2.80;;;;;;;26.19;52.96;100458.78;5107227;28;20513;-77
2021/08/02 11:41:26;;;;;;;5.07;2.90;;;;;;;26.17;52.77;100456.31;5097493;27;20046;-77
2021/08/02 11:44:12;;;;;;;6.10;3.15;;;;;;;26.14;52.82;100462.00;5110025;27;20034;-77
2021/08/02 11:46:58;;;;;;;3.13;2.70;;;;;;;26.04;53.80;100472.94;5107866;27;20059;-77
2021/08/02 11:49:43;;;;;;;4.85;2.70;;;;;;;26.11;53.23;100469.31;5090480;28;20032;-77
2021/08/02 11:52:29;;;;;;;5.35;2.58;;;;;;;26.11;53.01;100468.50;5104844;28;20046;-77
2021/08/02 11:55:17;;;;;;;3.83;2.80;;;;;;;26.06;52.37;100473.34;5099180;28;20039;-77
2021/08/02 11:58:03;;;;;;;3.05;2.55;;;;;;;26.06;52.84;100472.53;5086583;27;20058;-77
2021/08/02 12:00:59;;;;;;;3.97;2.65;;;;;;;26.06;52.81;100466.84;5094631;28;20038;-76
2021/08/02 12:03:45;;;;;;;5.50;3.10;;;;;;;26.03;52.32;100473.34;5117874;28;20487;-77
2021/08/02 12:06:31;;;;;;;3.97;2.58;;;;;;;26.00;52.94;100474.97;5101910;27;20518;-77
2021/08/02 12:09:47;;;;;;;3.05;2.45;;;;;;;25.99;52.48;100470.50;5091100;28;20043;-76
2021/08/02 12:12:33;;;;;;;3.53;2.78;;;;;;;26.01;53.54;100472.94;5121728;28;20035;-71
2021/08/02 12:15:18;;;;;;;4.55;3.17;;;;;;;26.03;53.44;100479.03;5100511;28;20048;-72
2021/08/02 12:18:04;;;;;;;4.32;2.72;;;;;;;26.01;53.57;100467.22;5097804;27;20045;-74
2021/08/02 12:20:50;;;;;;;4.78;3.13;;;;;;;25.99;53.78;100464.81;5086483;28;20043;-73
2021/08/02 12:23:36;;;;;;;4.20;2.60;;;;;;;26.05;53.31;100471.72;5118247;28;20099;-72
2021/08/02 12:26:23;;;;;;;4.25;3.28;;;;;;;26.02;52.70;100472.53;5131335;27;20035;-72
2021/08/02 12:29:18;;;;;;;3.85;2.60;;;;;;;26.07;52.43;100469.28;5132324;27;20122;-72
2021/08/02 12:32:04;;;;;;;4.05;2.88;;;;;;;26.15;53.25;100470.13;5109530;28;20522;-72
2021/08/02 12:34:50;;;;;;;3.58;2.53;;;;;;;26.24;53.26;100464.06;5119942;27;20040;-72
2021/08/02 12:37:36;;;;;;;4.68;2.72;;;;;;;26.32;53.40;100462.84;5131442;27;20035;-72
2021/08/02 12:40:22;;;;;;;4.93;2.40;;;;;;;26.39;53.82;100460.03;5135262;27;20100;-72
2021/08/02 12:43:08;;;;;;;5.03;2.80;;;;;;;26.48;53.68;100454.75;5118410;28;20369;-72
2021/08/02 12:45:54;;;;;;;5.20;2.50;;;;;;;26.64;53.63;100451.56;5095132;28;20035;-72
2021/08/02 12:48:40;;;;;;;6.30;2.70;;;;;;;26.78;52.48;100450.75;5091827;28;20035;-72
2021/08/02 12:51:26;;;;;;;3.30;2.58;;;;;;;26.92;51.79;100453.59;5089385;27;20028;-72
2021/08/02 12:54:12;;;;;;;5.30;2.80;;;;;;;27.10;50.51;100449.91;5092049;28;20075;-72
2021/08/02 12:56:57;;;;;;;3.78;2.60;;;;;;;27.26;50.25;100450.34;5092439;28;20126;-72
2021/08/02 12:59:43;;;;;;;3.50;2.45;;;;;;;27.43;50.59;100445.03;5086328;28;20035;-72
2021/08/02 13:02:30;;;;;;;3.35;2.20;;;;;;;27.61;51.15;100449.44;5090345;27;20023;-72
2021/08/02 13:05:15;;;;;;;4.03;2.58;;;;;;;27.80;50.27;100442.50;5087262;28;20031;-72
2021/08/02 13:08:01;;;;;;;4.90;2.25;;;;;;;27.91;50.27;100447.31;5089747;27;20063;-72
2021/08/02 13:10:47;;;;;;;2.75;2.38;;;;;;;28.05;48.85;100442.38;5106272;27;20066;-72
2021/08/02 13:13:33;;;;;;;2.47;2.03;;;;;;;28.17;47.88;100443.94;5091052;27;20032;-72
2021/08/02 13:16:18;;;;;;;3.13;2.00;;;;;;;28.28;47.24;100432.47;5106627;27;20046;-72
2021/08/02 13:19:04;;;;;;;4.28;2.25;;;;;;;28.40;46.37;100436.88;5095800;27;20114;-72